sensor_id;sensor_type;location;lat;lon;timestamp;P1;durP1;ratioP1;P2;durP2;ratioP2
14369;SDS011;7268;50.792;0.252;2023-06-22T00:01:45;2.70;;;1.77;;
14369;SDS011;7268;50.792;0.252;2023-06-22T00:04:12;3.20;;;1.98;;
14369;SDS011;7268;50.792;0.252;2023-06-22T00:06:39;3.75;;;1.35;;
14369;SDS011;7268;50.792;0.252;2023-06-22T00:09:06;4.25;;;1.65;;
14369;SDS011;7268;50.792;0.252;2023-06-22T00:11:33;3.28;;;1.45;;
14369;SDS011;7268;50.792;0.252;2023-06-22T00:14:00;3.75;;;1.40;;
14369;SDS011;7268;50.792;0.252;2023-06-22T00:16:27;3.38;;;1.83;;
14369;SDS011;7268;50.792;0.252;2023-06-22T00:18:54;7.57;;;3.33;;
14369;SDS011;7268;50.792;0.252;2023-06-22T00:21:21;2.42;;;1.90;;
14369;SDS011;7268;50.792;0.252;2023-06-22T00:23:48;3.55;;;1.00;;
14369;SDS011;7268;50.792;0.252;2023-06-22T00:26:15;6.05;;;2.63;;
14369;SDS011;7268;50.792;0.252;2023-06-22T00:31:10;9.10;;;2.55;;
14369;SDS011;7268;50.792;0.252;2023-06-22T00:33:37;6.35;;;2.92;;
14369;SDS011;7268;50.792;0.252;2023-06-22T00:36:04;4.88;;;3.17;;
14369;SDS011;7268;50.792;0.252;2023-06-22T00:38:32;7.75;;;3.05;;
14369;SDS011;7268;50.792;0.252;2023-06-22T00:40:59;6.88;;;3.88;;
14369;SDS011;7268;50.792;0.252;2023-06-22T00:43:26;6.88;;;2.53;;
14369;SDS011;7268;50.792;0.252;2023-06-22T00:45:55;4.63;;;2.08;;
14369;SDS011;7268;50.792;0.252;2023-06-22T00:48:23;7.07;;;2.38;;
14369;SDS011;7268;50.792;0.252;2023-06-22T00:50:50;4.80;;;2.00;;
14369;SDS011;7268;50.792;0.252;2023-06-22T00:53:20;5.78;;;2.92;;
14369;SDS011;7268;50.792;0.252;2023-06-22T00:55:47;6.88;;;4.25;;
14369;SDS011;7268;50.792;0.252;2023-06-22T00:58:18;5.80;;;2.45;;
14369;SDS011;7268;50.792;0.252;2023-06-22T01:00:48;5.00;;;1.67;;
14369;SDS011;7268;50.792;0.252;2023-06-22T01:03:15;6.43;;;2.60;;
14369;SDS011;7268;50.792;0.252;2023-06-22T01:05:43;4.03;;;2.42;;
14369;SDS011;7268;50.792;0.252;2023-06-22T01:08:38;4.50;;;2.38;;
14369;SDS011;7268;50.792;0.252;2023-06-22T01:11:14;3.42;;;1.92;;
14369;SDS011;7268;50.792;0.252;2023-06-22T01:16:33;3.50;;;1.85;;
14369;SDS011;7268;50.792;0.252;2023-06-22T01:19:05;4.57;;;2.20;;
14369;SDS011;7268;50.792;0.252;2023-06-22T01:21:45;4.03;;;2.40;;
14369;SDS011;7268;50.792;0.252;2023-06-22T01:27:12;4.68;;;1.80;;
14369;SDS011;7268;50.792;0.252;2023-06-22T01:29:51;2.17;;;1.02;;
14369;SDS011;7268;50.792;0.252;2023-06-22T01:32:30;2.50;;;1.40;;
14369;SDS011;7268;50.792;0.252;2023-06-22T01:34:59;3.67;;;1.67;;
14369;SDS011;7268;50.792;0.252;2023-06-22T01:37:27;4.40;;;1.73;;
14369;SDS011;7268;50.792;0.252;2023-06-22T01:39:56;4.28;;;1.95;;
14369;SDS011;7268;50.792;0.252;2023-06-22T01:42:23;2.75;;;1.35;;
14369;SDS011;7268;50.792;0.252;2023-06-22T01:44:52;3.08;;;1.95;;
14369;SDS011;7268;50.792;0.252;2023-06-22T01:47:22;4.47;;;1.60;;
14369;SDS011;7268;50.792;0.252;2023-06-22T01:49:50;4.95;;;1.85;;
14369;SDS011;7268;50.792;0.252;2023-06-22T01:52:18;4.07;;;2.33;;
14369;SDS011;7268;50.792;0.252;2023-06-22T01:54:47;4.32;;;1.70;;
14369;SDS011;7268;50.792;0.252;2023-06-22T01:57:14;6.97;;;1.70;;
14369;SDS011;7268;50.792;0.252;2023-06-22T01:59:45;4.43;;;2.88;;
14369;SDS011;7268;50.792;0.252;2023-06-22T02:02:23;3.50;;;1.92;;
14369;SDS011;7268;50.792;0.252;2023-06-22T02:04:57;4.55;;;2.35;;
14369;SDS011;7268;50.792;0.252;2023-06-22T02:07:31;5.00;;;2.53;;
14369;SDS011;7268;50.792;0.252;2023-06-22T02:10:00;4.85;;;2.30;;
14369;SDS011;7268;50.792;0.252;2023-06-22T02:12:29;3.97;;;1.30;;
14369;SDS011;7268;50.792;0.252;2023-06-22T02:14:58;5.03;;;1.92;;
14369;SDS011;7268;50.792;0.252;2023-06-22T02:17:27;5.88;;;2.50;;
14369;SDS011;7268;50.792;0.252;2023-06-22T02:19:54;4.85;;;2.58;;
14369;SDS011;7268;50.792;0.252;2023-06-22T02:22:21;4.55;;;2.53;;
14369;SDS011;7268;50.792;0.252;2023-06-22T02:24:48;4.43;;;2.53;;
14369;SDS011;7268;50.792;0.252;2023-06-22T02:27:15;4.25;;;1.80;;
14369;SDS011;7268;50.792;0.252;2023-06-22T02:29:42;4.93;;;2.70;;
14369;SDS011;7268;50.792;0.252;2023-06-22T02:32:09;4.35;;;2.28;;
14369;SDS011;7268;50.792;0.252;2023-06-22T02:34:36;4.25;;;2.13;;
14369;SDS011;7268;50.792;0.252;2023-06-22T02:37:03;5.10;;;2.30;;
14369;SDS011;7268;50.792;0.252;2023-06-22T02:39:31;4.25;;;2.63;;
14369;SDS011;7268;50.792;0.252;2023-06-22T02:41:58;5.95;;;2.60;;
14369;SDS011;7268;50.792;0.252;2023-06-22T02:44:25;7.82;;;4.72;;
14369;SDS011;7268;50.792;0.252;2023-06-22T02:46:51;5.18;;;3.03;;
14369;SDS011;7268;50.792;0.252;2023-06-22T02:49:20;4.32;;;2.92;;
14369;SDS011;7268;50.792;0.252;2023-06-22T02:51:47;5.40;;;2.58;;
14369;SDS011;7268;50.792;0.252;2023-06-22T02:54:15;4.35;;;2.25;;
14369;SDS011;7268;50.792;0.252;2023-06-22T02:56:42;4.88;;;2.05;;
14369;SDS011;7268;50.792;0.252;2023-06-22T02:59:12;4.13;;;1.67;;
14369;SDS011;7268;50.792;0.252;2023-06-22T03:01:39;5.15;;;3.03;;
14369;SDS011;7268;50.792;0.252;2023-06-22T03:04:07;3.60;;;1.38;;
14369;SDS011;7268;50.792;0.252;2023-06-22T03:06:35;7.35;;;3.35;;
14369;SDS011;7268;50.792;0.252;2023-06-22T03:09:03;5.72;;;3.22;;
14369;SDS011;7268;50.792;0.252;2023-06-22T03:11:31;6.65;;;1.95;;
14369;SDS011;7268;50.792;0.252;2023-06-22T03:13:59;4.57;;;2.80;;
14369;SDS011;7268;50.792;0.252;2023-06-22T03:16:27;4.47;;;2.30;;
14369;SDS011;7268;50.792;0.252;2023-06-22T03:18:54;3.85;;;1.98;;
14369;SDS011;7268;50.792;0.252;2023-06-22T03:21:27;5.07;;;2.53;;
14369;SDS011;7268;50.792;0.252;2023-06-22T03:23:54;3.70;;;2.22;;
14369;SDS011;7268;50.792;0.252;2023-06-22T03:26:22;4.38;;;1.92;;
14369;SDS011;7268;50.792;0.252;2023-06-22T03:28:50;4.97;;;3.28;;
14369;SDS011;7268;50.792;0.252;2023-06-22T03:31:16;4.50;;;2.75;;
14369;SDS011;7268;50.792;0.252;2023-06-22T03:33:48;3.40;;;2.05;;
14369;SDS011;7268;50.792;0.252;2023-06-22T03:36:16;6.53;;;2.95;;
14369;SDS011;7268;50.792;0.252;2023-06-22T03:38:47;4.00;;;2.30;;
14369;SDS011;7268;50.792;0.252;2023-06-22T03:41:15;3.60;;;2.15;;
14369;SDS011;7268;50.792;0.252;2023-06-22T03:43:42;5.10;;;2.15;;
14369;SDS011;7268;50.792;0.252;2023-06-22T03:46:09;3.63;;;2.03;;
14369;SDS011;7268;50.792;0.252;2023-06-22T03:48:37;3.72;;;1.63;;
14369;SDS011;7268;50.792;0.252;2023-06-22T03:51:04;4.35;;;1.65;;
14369;SDS011;7268;50.792;0.252;2023-06-22T03:53:31;4.15;;;2.33;;
14369;SDS011;7268;50.792;0.252;2023-06-22T03:55:58;4.80;;;2.88;;
14369;SDS011;7268;50.792;0.252;2023-06-22T03:58:25;8.93;;;4.15;;
14369;SDS011;7268;50.792;0.252;2023-06-22T04:00:52;8.95;;;4.18;;
14369;SDS011;7268;50.792;0.252;2023-06-22T04:03:19;10.13;;;4.05;;
14369;SDS011;7268;50.792;0.252;2023-06-22T04:05:47;8.10;;;2.75;;
14369;SDS011;7268;50.792;0.252;2023-06-22T04:08:15;6.30;;;2.55;;
14369;SDS011;7268;50.792;0.252;2023-06-22T04:10:42;8.88;;;3.78;;
14369;SDS011;7268;50.792;0.252;2023-06-22T04:13:09;10.30;;;3.95;;
14369;SDS011;7268;50.792;0.252;2023-06-22T04:15:36;5.78;;;2.45;;
14369;SDS011;7268;50.792;0.252;2023-06-22T04:18:03;9.00;;;4.07;;
14369;SDS011;7268;50.792;0.252;2023-06-22T04:20:31;8.88;;;3.75;;
14369;SDS011;7268;50.792;0.252;2023-06-22T04:22:59;9.13;;;3.95;;
14369;SDS011;7268;50.792;0.252;2023-06-22T04:25:26;7.00;;;2.05;;
14369;SDS011;7268;50.792;0.252;2023-06-22T04:27:53;6.68;;;2.25;;
14369;SDS011;7268;50.792;0.252;2023-06-22T04:30:23;5.18;;;2.53;;
14369;SDS011;7268;50.792;0.252;2023-06-22T04:32:50;4.93;;;2.45;;
14369;SDS011;7268;50.792;0.252;2023-06-22T04:35:24;5.88;;;1.73;;
14369;SDS011;7268;50.792;0.252;2023-06-22T04:37:52;4.47;;;2.63;;
14369;SDS011;7268;50.792;0.252;2023-06-22T04:40:22;6.13;;;1.90;;
14369;SDS011;7268;50.792;0.252;2023-06-22T04:45:19;4.80;;;2.28;;
14369;SDS011;7268;50.792;0.252;2023-06-22T04:47:47;4.15;;;2.13;;
14369;SDS011;7268;50.792;0.252;2023-06-22T04:50:15;4.93;;;2.92;;
14369;SDS011;7268;50.792;0.252;2023-06-22T04:52:42;3.13;;;1.45;;
14369;SDS011;7268;50.792;0.252;2023-06-22T04:55:09;3.00;;;1.88;;
14369;SDS011;7268;50.792;0.252;2023-06-22T04:57:39;2.17;;;1.05;;
14369;SDS011;7268;50.792;0.252;2023-06-22T05:00:06;3.83;;;1.48;;
14369;SDS011;7268;50.792;0.252;2023-06-22T05:05:07;1.83;;;0.70;;
14369;SDS011;7268;50.792;0.252;2023-06-22T05:07:35;1.83;;;1.30;;
14369;SDS011;7268;50.792;0.252;2023-06-22T05:10:03;4.35;;;0.85;;
14369;SDS011;7268;50.792;0.252;2023-06-22T05:12:30;1.10;;;0.30;;
14369;SDS011;7268;50.792;0.252;2023-06-22T05:15:00;4.45;;;1.48;;
14369;SDS011;7268;50.792;0.252;2023-06-22T05:17:27;1.95;;;1.27;;
14369;SDS011;7268;50.792;0.252;2023-06-22T05:19:54;3.92;;;1.35;;
14369;SDS011;7268;50.792;0.252;2023-06-22T05:22:22;2.35;;;1.15;;
14369;SDS011;7268;50.792;0.252;2023-06-22T05:24:48;2.25;;;1.00;;
14369;SDS011;7268;50.792;0.252;2023-06-22T05:27:15;2.35;;;1.08;;
14369;SDS011;7268;50.792;0.252;2023-06-22T05:29:43;2.83;;;0.95;;
14369;SDS011;7268;50.792;0.252;2023-06-22T05:32:10;1.60;;;0.60;;
14369;SDS011;7268;50.792;0.252;2023-06-22T05:34:37;3.55;;;1.33;;
14369;SDS011;7268;50.792;0.252;2023-06-22T05:37:05;2.28;;;1.00;;
14369;SDS011;7268;50.792;0.252;2023-06-22T05:39:32;3.20;;;1.60;;
14369;SDS011;7268;50.792;0.252;2023-06-22T05:41:59;2.78;;;1.65;;
14369;SDS011;7268;50.792;0.252;2023-06-22T05:44:26;3.97;;;1.88;;
14369;SDS011;7268;50.792;0.252;2023-06-22T05:46:53;2.75;;;1.73;;
14369;SDS011;7268;50.792;0.252;2023-06-22T05:49:20;4.70;;;2.00;;
14369;SDS011;7268;50.792;0.252;2023-06-22T05:51:48;3.83;;;2.53;;
14369;SDS011;7268;50.792;0.252;2023-06-22T05:54:15;4.85;;;1.30;;
14369;SDS011;7268;50.792;0.252;2023-06-22T05:56:44;4.53;;;1.40;;
14369;SDS011;7268;50.792;0.252;2023-06-22T05:59:11;4.63;;;1.98;;
14369;SDS011;7268;50.792;0.252;2023-06-22T06:01:38;3.22;;;1.65;;
14369;SDS011;7268;50.792;0.252;2023-06-22T06:04:06;2.13;;;1.13;;
14369;SDS011;7268;50.792;0.252;2023-06-22T06:06:35;2.30;;;0.85;;
14369;SDS011;7268;50.792;0.252;2023-06-22T06:09:04;1.30;;;0.70;;
14369;SDS011;7268;50.792;0.252;2023-06-22T06:11:31;3.13;;;1.33;;
14369;SDS011;7268;50.792;0.252;2023-06-22T06:13:58;2.53;;;1.38;;
14369;SDS011;7268;50.792;0.252;2023-06-22T06:16:25;3.85;;;1.30;;
14369;SDS011;7268;50.792;0.252;2023-06-22T06:18:52;4.00;;;1.70;;
14369;SDS011;7268;50.792;0.252;2023-06-22T06:21:22;4.60;;;2.28;;
14369;SDS011;7268;50.792;0.252;2023-06-22T06:23:49;4.93;;;2.33;;
14369;SDS011;7268;50.792;0.252;2023-06-22T06:26:16;4.68;;;1.73;;
14369;SDS011;7268;50.792;0.252;2023-06-22T06:28:43;3.88;;;2.00;;
14369;SDS011;7268;50.792;0.252;2023-06-22T06:31:11;3.85;;;1.77;;
14369;SDS011;7268;50.792;0.252;2023-06-22T06:33:38;12.30;;;7.63;;
14369;SDS011;7268;50.792;0.252;2023-06-22T06:36:05;4.82;;;2.50;;
14369;SDS011;7268;50.792;0.252;2023-06-22T06:38:34;3.15;;;1.42;;
14369;SDS011;7268;50.792;0.252;2023-06-22T06:41:01;3.75;;;2.10;;
14369;SDS011;7268;50.792;0.252;2023-06-22T06:43:28;3.15;;;2.05;;
14369;SDS011;7268;50.792;0.252;2023-06-22T06:45:55;4.38;;;1.27;;
14369;SDS011;7268;50.792;0.252;2023-06-22T06:48:22;3.72;;;1.45;;
14369;SDS011;7268;50.792;0.252;2023-06-22T06:50:49;3.20;;;1.65;;
14369;SDS011;7268;50.792;0.252;2023-06-22T06:53:16;3.45;;;1.52;;
14369;SDS011;7268;50.792;0.252;2023-06-22T06:55:43;3.53;;;1.13;;
14369;SDS011;7268;50.792;0.252;2023-06-22T06:58:12;3.08;;;0.90;;
14369;SDS011;7268;50.792;0.252;2023-06-22T07:00:39;3.55;;;1.75;;
14369;SDS011;7268;50.792;0.252;2023-06-22T07:03:06;3.42;;;1.58;;
14369;SDS011;7268;50.792;0.252;2023-06-22T07:08:01;3.65;;;1.83;;
14369;SDS011;7268;50.792;0.252;2023-06-22T07:10:29;2.80;;;1.30;;
14369;SDS011;7268;50.792;0.252;2023-06-22T07:12:56;2.63;;;1.00;;
14369;SDS011;7268;50.792;0.252;2023-06-22T07:17:51;3.42;;;0.93;;
14369;SDS011;7268;50.792;0.252;2023-06-22T07:20:18;2.90;;;0.93;;
14369;SDS011;7268;50.792;0.252;2023-06-22T07:22:46;4.53;;;1.60;;
14369;SDS011;7268;50.792;0.252;2023-06-22T07:25:13;2.80;;;1.48;;
14369;SDS011;7268;50.792;0.252;2023-06-22T07:27:56;2.53;;;1.30;;
14369;SDS011;7268;50.792;0.252;2023-06-22T07:30:29;2.28;;;0.77;;
14369;SDS011;7268;50.792;0.252;2023-06-22T07:33:01;5.55;;;1.40;;
14369;SDS011;7268;50.792;0.252;2023-06-22T07:35:35;3.67;;;1.70;;
14369;SDS011;7268;50.792;0.252;2023-06-22T07:38:02;4.10;;;1.63;;
14369;SDS011;7268;50.792;0.252;2023-06-22T07:40:31;4.10;;;1.35;;
14369;SDS011;7268;50.792;0.252;2023-06-22T07:43:00;4.97;;;1.23;;
14369;SDS011;7268;50.792;0.252;2023-06-22T07:45:27;3.15;;;2.10;;
14369;SDS011;7268;50.792;0.252;2023-06-22T07:47:54;3.33;;;1.40;;
14369;SDS011;7268;50.792;0.252;2023-06-22T07:50:20;2.90;;;0.95;;
14369;SDS011;7268;50.792;0.252;2023-06-22T07:52:47;2.33;;;1.00;;
14369;SDS011;7268;50.792;0.252;2023-06-22T07:55:14;2.25;;;1.15;;
14369;SDS011;7268;50.792;0.252;2023-06-22T07:57:41;2.92;;;1.17;;
14369;SDS011;7268;50.792;0.252;2023-06-22T08:00:08;2.10;;;0.60;;
14369;SDS011;7268;50.792;0.252;2023-06-22T08:02:42;2.90;;;0.95;;
14369;SDS011;7268;50.792;0.252;2023-06-22T08:05:10;2.03;;;1.05;;
14369;SDS011;7268;50.792;0.252;2023-06-22T08:07:41;1.98;;;0.70;;
14369;SDS011;7268;50.792;0.252;2023-06-22T08:10:10;1.98;;;1.05;;
14369;SDS011;7268;50.792;0.252;2023-06-22T08:12:38;3.20;;;1.27;;
14369;SDS011;7268;50.792;0.252;2023-06-22T08:15:06;1.92;;;0.52;;
14369;SDS011;7268;50.792;0.252;2023-06-22T08:17:34;1.67;;;0.90;;
14369;SDS011;7268;50.792;0.252;2023-06-22T08:22:30;2.17;;;0.85;;
14369;SDS011;7268;50.792;0.252;2023-06-22T08:27:24;1.88;;;0.95;;
14369;SDS011;7268;50.792;0.252;2023-06-22T08:29:50;2.70;;;0.80;;
14369;SDS011;7268;50.792;0.252;2023-06-22T08:32:20;2.20;;;0.90;;
14369;SDS011;7268;50.792;0.252;2023-06-22T08:34:48;1.83;;;1.00;;
14369;SDS011;7268;50.792;0.252;2023-06-22T08:37:15;3.55;;;0.98;;
14369;SDS011;7268;50.792;0.252;2023-06-22T08:39:41;1.25;;;0.52;;
14369;SDS011;7268;50.792;0.252;2023-06-22T08:44:35;1.35;;;0.80;;
14369;SDS011;7268;50.792;0.252;2023-06-22T08:47:02;2.45;;;1.05;;
14369;SDS011;7268;50.792;0.252;2023-06-22T08:49:29;0.90;;;0.15;;
14369;SDS011;7268;50.792;0.252;2023-06-22T08:51:56;2.22;;;0.88;;
14369;SDS011;7268;50.792;0.252;2023-06-22T08:54:26;1.20;;;0.50;;
14369;SDS011;7268;50.792;0.252;2023-06-22T08:56:54;3.50;;;1.08;;
14369;SDS011;7268;50.792;0.252;2023-06-22T08:59:21;1.25;;;0.45;;
14369;SDS011;7268;50.792;0.252;2023-06-22T09:01:48;1.15;;;0.32;;
14369;SDS011;7268;50.792;0.252;2023-06-22T09:04:15;1.65;;;1.27;;
14369;SDS011;7268;50.792;0.252;2023-06-22T09:06:43;1.15;;;0.38;;
14369;SDS011;7268;50.792;0.252;2023-06-22T09:09:15;1.85;;;0.65;;
14369;SDS011;7268;50.792;0.252;2023-06-22T09:11:43;1.73;;;0.52;;
14369;SDS011;7268;50.792;0.252;2023-06-22T09:16:37;0.60;;;0.10;;
14369;SDS011;7268;50.792;0.252;2023-06-22T09:21:31;1.30;;;0.13;;
14369;SDS011;7268;50.792;0.252;2023-06-22T09:24:00;0.80;;;0.20;;
14369;SDS011;7268;50.792;0.252;2023-06-22T09:26:27;0.75;;;0.17;;
14369;SDS011;7268;50.792;0.252;2023-06-22T09:28:54;1.15;;;0.40;;
14369;SDS011;7268;50.792;0.252;2023-06-22T09:33:53;0.70;;;0.38;;
14369;SDS011;7268;50.792;0.252;2023-06-22T09:36:21;0.57;;;0.00;;
14369;SDS011;7268;50.792;0.252;2023-06-22T09:38:48;1.02;;;0.35;;
14369;SDS011;7268;50.792;0.252;2023-06-22T09:41:21;0.70;;;0.15;;
14369;SDS011;7268;50.792;0.252;2023-06-22T09:43:49;3.53;;;0.20;;
14369;SDS011;7268;50.792;0.252;2023-06-22T09:46:16;0.73;;;0.30;;
14369;SDS011;7268;50.792;0.252;2023-06-22T09:48:48;0.88;;;0.38;;
14369;SDS011;7268;50.792;0.252;2023-06-22T09:51:14;0.70;;;0.20;;
14369;SDS011;7268;50.792;0.252;2023-06-22T09:53:43;1.17;;;0.20;;
14369;SDS011;7268;50.792;0.252;2023-06-22T09:56:14;0.80;;;0.40;;
14369;SDS011;7268;50.792;0.252;2023-06-22T09:58:41;0.90;;;0.10;;
14369;SDS011;7268;50.792;0.252;2023-06-22T10:01:09;1.25;;;0.25;;
14369;SDS011;7268;50.792;0.252;2023-06-22T10:03:37;0.60;;;0.20;;
14369;SDS011;7268;50.792;0.252;2023-06-22T10:06:05;0.60;;;0.10;;
14369;SDS011;7268;50.792;0.252;2023-06-22T10:08:32;0.70;;;0.20;;
14369;SDS011;7268;50.792;0.252;2023-06-22T10:10:59;1.48;;;0.08;;
14369;SDS011;7268;50.792;0.252;2023-06-22T10:15:53;0.88;;;0.30;;
14369;SDS011;7268;50.792;0.252;2023-06-22T10:18:20;0.70;;;0.20;;
14369;SDS011;7268;50.792;0.252;2023-06-22T10:20:48;0.63;;;0.00;;
14369;SDS011;7268;50.792;0.252;2023-06-22T10:23:20;0.90;;;0.00;;
14369;SDS011;7268;50.792;0.252;2023-06-22T10:25:48;0.95;;;0.60;;
14369;SDS011;7268;50.792;0.252;2023-06-22T10:30:42;0.82;;;0.13;;
14369;SDS011;7268;50.792;0.252;2023-06-22T10:33:10;0.63;;;0.00;;
14369;SDS011;7268;50.792;0.252;2023-06-22T10:35:37;1.20;;;0.22;;
14369;SDS011;7268;50.792;0.252;2023-06-22T10:38:04;0.85;;;0.10;;
14369;SDS011;7268;50.792;0.252;2023-06-22T10:40:32;1.80;;;0.35;;
14369;SDS011;7268;50.792;0.252;2023-06-22T10:42:59;1.05;;;0.20;;
14369;SDS011;7268;50.792;0.252;2023-06-22T10:45:26;2.05;;;0.40;;
14369;SDS011;7268;50.792;0.252;2023-06-22T10:47:57;0.70;;;0.17;;
14369;SDS011;7268;50.792;0.252;2023-06-22T10:50:24;0.80;;;0.30;;
14369;SDS011;7268;50.792;0.252;2023-06-22T10:52:53;0.88;;;0.40;;
14369;SDS011;7268;50.792;0.252;2023-06-22T10:55:24;0.77;;;0.08;;
14369;SDS011;7268;50.792;0.252;2023-06-22T11:00:18;0.60;;;0.00;;
14369;SDS011;7268;50.792;0.252;2023-06-22T11:02:45;1.17;;;0.77;;
14369;SDS011;7268;50.792;0.252;2023-06-22T11:05:12;1.25;;;0.20;;
14369;SDS011;7268;50.792;0.252;2023-06-22T11:10:10;0.95;;;0.35;;
14369;SDS011;7268;50.792;0.252;2023-06-22T11:12:38;0.70;;;0.32;;
14369;SDS011;7268;50.792;0.252;2023-06-22T11:15:05;0.93;;;0.22;;
14369;SDS011;7268;50.792;0.252;2023-06-22T11:17:37;0.73;;;0.13;;
14369;SDS011;7268;50.792;0.252;2023-06-22T11:20:04;0.98;;;0.40;;
14369;SDS011;7268;50.792;0.252;2023-06-22T11:22:38;0.82;;;0.20;;
14369;SDS011;7268;50.792;0.252;2023-06-22T11:25:05;1.45;;;0.22;;
14369;SDS011;7268;50.792;0.252;2023-06-22T11:27:33;1.65;;;0.50;;
14369;SDS011;7268;50.792;0.252;2023-06-22T11:30:00;2.53;;;1.10;;
14369;SDS011;7268;50.792;0.252;2023-06-22T11:34:54;1.75;;;1.02;;
14369;SDS011;7268;50.792;0.252;2023-06-22T11:37:21;1.65;;;0.50;;
14369;SDS011;7268;50.792;0.252;2023-06-22T11:42:32;3.63;;;0.90;;
14369;SDS011;7268;50.792;0.252;2023-06-22T11:44:59;2.28;;;1.23;;
14369;SDS011;7268;50.792;0.252;2023-06-22T11:49:53;2.10;;;0.95;;
14369;SDS011;7268;50.792;0.252;2023-06-22T11:54:47;2.10;;;0.93;;
14369;SDS011;7268;50.792;0.252;2023-06-22T11:57:14;1.73;;;1.25;;
14369;SDS011;7268;50.792;0.252;2023-06-22T11:59:41;2.63;;;1.02;;
14369;SDS011;7268;50.792;0.252;2023-06-22T12:02:07;1.63;;;0.60;;
14369;SDS011;7268;50.792;0.252;2023-06-22T12:04:35;3.78;;;1.48;;
14369;SDS011;7268;50.792;0.252;2023-06-22T12:07:02;2.22;;;1.10;;
14369;SDS011;7268;50.792;0.252;2023-06-22T12:09:29;2.97;;;0.70;;
14369;SDS011;7268;50.792;0.252;2023-06-22T12:11:56;2.05;;;1.52;;
14369;SDS011;7268;50.792;0.252;2023-06-22T12:14:23;2.05;;;1.08;;
14369;SDS011;7268;50.792;0.252;2023-06-22T12:16:50;1.90;;;1.35;;
14369;SDS011;7268;50.792;0.252;2023-06-22T12:21:44;2.28;;;0.95;;
14369;SDS011;7268;50.792;0.252;2023-06-22T12:24:12;3.15;;;0.73;;
14369;SDS011;7268;50.792;0.252;2023-06-22T12:26:39;2.70;;;1.15;;
14369;SDS011;7268;50.792;0.252;2023-06-22T12:29:06;2.25;;;0.88;;
14369;SDS011;7268;50.792;0.252;2023-06-22T12:31:33;2.13;;;0.95;;
14369;SDS011;7268;50.792;0.252;2023-06-22T12:36:27;2.00;;;0.47;;
14369;SDS011;7268;50.792;0.252;2023-06-22T12:38:54;2.67;;;0.73;;
14369;SDS011;7268;50.792;0.252;2023-06-22T12:41:21;1.88;;;0.77;;
14369;SDS011;7268;50.792;0.252;2023-06-22T12:43:49;3.85;;;1.08;;
14369;SDS011;7268;50.792;0.252;2023-06-22T12:46:16;3.47;;;1.25;;
14369;SDS011;7268;50.792;0.252;2023-06-22T12:48:42;3.83;;;1.33;;
14369;SDS011;7268;50.792;0.252;2023-06-22T12:53:36;2.05;;;1.27;;
14369;SDS011;7268;50.792;0.252;2023-06-22T12:56:03;2.47;;;1.05;;
14369;SDS011;7268;50.792;0.252;2023-06-22T12:58:30;4.07;;;1.38;;
14369;SDS011;7268;50.792;0.252;2023-06-22T13:00:57;1.98;;;1.10;;
14369;SDS011;7268;50.792;0.252;2023-06-22T13:03:24;2.90;;;0.68;;
14369;SDS011;7268;50.792;0.252;2023-06-22T13:05:53;4.57;;;1.23;;
14369;SDS011;7268;50.792;0.252;2023-06-22T13:08:20;2.50;;;1.63;;
14369;SDS011;7268;50.792;0.252;2023-06-22T13:11:00;2.40;;;1.35;;
14369;SDS011;7268;50.792;0.252;2023-06-22T13:13:27;2.67;;;1.73;;
14369;SDS011;7268;50.792;0.252;2023-06-22T13:15:54;3.83;;;1.60;;
14369;SDS011;7268;50.792;0.252;2023-06-22T13:18:21;3.25;;;1.63;;
14369;SDS011;7268;50.792;0.252;2023-06-22T13:20:48;3.42;;;1.42;;
14369;SDS011;7268;50.792;0.252;2023-06-22T13:23:15;2.50;;;1.35;;
14369;SDS011;7268;50.792;0.252;2023-06-22T13:25:42;2.78;;;1.80;;
14369;SDS011;7268;50.792;0.252;2023-06-22T13:28:09;4.00;;;1.70;;
14369;SDS011;7268;50.792;0.252;2023-06-22T13:30:52;2.25;;;1.55;;
14369;SDS011;7268;50.792;0.252;2023-06-22T13:33:19;4.03;;;1.55;;
14369;SDS011;7268;50.792;0.252;2023-06-22T13:35:46;3.53;;;1.55;;
14369;SDS011;7268;50.792;0.252;2023-06-22T13:38:13;2.35;;;0.82;;
14369;SDS011;7268;50.792;0.252;2023-06-22T13:40:44;4.47;;;1.50;;
14369;SDS011;7268;50.792;0.252;2023-06-22T13:43:11;2.63;;;1.35;;
14369;SDS011;7268;50.792;0.252;2023-06-22T13:45:38;3.92;;;1.20;;
14369;SDS011;7268;50.792;0.252;2023-06-22T13:48:05;2.90;;;1.17;;
14369;SDS011;7268;50.792;0.252;2023-06-22T13:50:33;2.30;;;0.47;;
14369;SDS011;7268;50.792;0.252;2023-06-22T13:53:00;3.22;;;1.42;;
14369;SDS011;7268;50.792;0.252;2023-06-22T13:55:27;4.60;;;2.03;;
14369;SDS011;7268;50.792;0.252;2023-06-22T13:57:54;2.40;;;1.48;;
14369;SDS011;7268;50.792;0.252;2023-06-22T14:00:20;3.17;;;0.95;;
14369;SDS011;7268;50.792;0.252;2023-06-22T14:02:47;3.55;;;1.20;;
14369;SDS011;7268;50.792;0.252;2023-06-22T14:05:14;1.75;;;1.20;;
14369;SDS011;7268;50.792;0.252;2023-06-22T14:07:41;4.07;;;1.65;;
14369;SDS011;7268;50.792;0.252;2023-06-22T14:10:08;3.03;;;1.20;;
14369;SDS011;7268;50.792;0.252;2023-06-22T14:15:02;5.72;;;1.95;;
14369;SDS011;7268;50.792;0.252;2023-06-22T14:17:30;4.35;;;1.45;;
14369;SDS011;7268;50.792;0.252;2023-06-22T14:19:57;3.00;;;1.25;;
14369;SDS011;7268;50.792;0.252;2023-06-22T14:22:23;3.15;;;1.65;;
14369;SDS011;7268;50.792;0.252;2023-06-22T14:24:51;4.68;;;1.83;;
14369;SDS011;7268;50.792;0.252;2023-06-22T14:27:18;3.42;;;1.63;;
14369;SDS011;7268;50.792;0.252;2023-06-22T14:29:45;2.22;;;0.65;;
14369;SDS011;7268;50.792;0.252;2023-06-22T14:32:12;3.47;;;0.95;;
14369;SDS011;7268;50.792;0.252;2023-06-22T14:34:39;3.38;;;1.05;;
14369;SDS011;7268;50.792;0.252;2023-06-22T14:37:10;2.72;;;1.25;;
14369;SDS011;7268;50.792;0.252;2023-06-22T14:39:38;3.17;;;1.27;;
14369;SDS011;7268;50.792;0.252;2023-06-22T14:42:05;2.72;;;1.38;;
14369;SDS011;7268;50.792;0.252;2023-06-22T14:44:32;4.07;;;1.70;;
14369;SDS011;7268;50.792;0.252;2023-06-22T14:49:26;3.10;;;1.45;;
14369;SDS011;7268;50.792;0.252;2023-06-22T14:51:53;3.08;;;1.92;;
14369;SDS011;7268;50.792;0.252;2023-06-22T14:54:20;2.42;;;1.48;;
14369;SDS011;7268;50.792;0.252;2023-06-22T14:56:47;2.72;;;0.90;;
14369;SDS011;7268;50.792;0.252;2023-06-22T14:59:14;3.10;;;1.40;;
14369;SDS011;7268;50.792;0.252;2023-06-22T15:01:41;2.75;;;1.17;;
14369;SDS011;7268;50.792;0.252;2023-06-22T15:04:12;4.88;;;2.08;;
14369;SDS011;7268;50.792;0.252;2023-06-22T15:06:39;3.55;;;1.38;;
14369;SDS011;7268;50.792;0.252;2023-06-22T15:09:06;3.63;;;1.05;;
14369;SDS011;7268;50.792;0.252;2023-06-22T15:11:33;5.15;;;1.75;;
14369;SDS011;7268;50.792;0.252;2023-06-22T15:14:00;2.70;;;0.98;;
14369;SDS011;7268;50.792;0.252;2023-06-22T15:16:27;4.03;;;1.73;;
14369;SDS011;7268;50.792;0.252;2023-06-22T15:18:54;2.25;;;1.00;;
14369;SDS011;7268;50.792;0.252;2023-06-22T15:21:21;5.93;;;1.15;;
14369;SDS011;7268;50.792;0.252;2023-06-22T15:23:49;6.78;;;2.20;;
14369;SDS011;7268;50.792;0.252;2023-06-22T15:26:16;3.95;;;1.40;;
14369;SDS011;7268;50.792;0.252;2023-06-22T15:28:43;2.20;;;1.35;;
14369;SDS011;7268;50.792;0.252;2023-06-22T15:31:10;6.65;;;1.42;;
14369;SDS011;7268;50.792;0.252;2023-06-22T15:33:40;2.03;;;1.30;;
14369;SDS011;7268;50.792;0.252;2023-06-22T15:36:07;2.67;;;1.20;;
14369;SDS011;7268;50.792;0.252;2023-06-22T15:38:36;1.50;;;0.38;;
14369;SDS011;7268;50.792;0.252;2023-06-22T15:41:03;3.15;;;1.17;;
14369;SDS011;7268;50.792;0.252;2023-06-22T15:43:30;1.80;;;1.27;;
14369;SDS011;7268;50.792;0.252;2023-06-22T15:45:57;4.63;;;1.98;;
14369;SDS011;7268;50.792;0.252;2023-06-22T15:48:24;2.95;;;1.08;;
14369;SDS011;7268;50.792;0.252;2023-06-22T15:50:51;3.00;;;1.45;;
14369;SDS011;7268;50.792;0.252;2023-06-22T15:53:18;2.67;;;0.85;;
14369;SDS011;7268;50.792;0.252;2023-06-22T15:55:45;3.88;;;1.65;;
14369;SDS011;7268;50.792;0.252;2023-06-22T15:58:13;4.38;;;1.17;;
14369;SDS011;7268;50.792;0.252;2023-06-22T16:00:43;2.63;;;1.20;;
14369;SDS011;7268;50.792;0.252;2023-06-22T16:03:11;2.85;;;0.85;;
14369;SDS011;7268;50.792;0.252;2023-06-22T16:05:39;2.03;;;1.13;;
14369;SDS011;7268;50.792;0.252;2023-06-22T16:08:09;3.30;;;1.42;;
14369;SDS011;7268;50.792;0.252;2023-06-22T16:10:43;3.55;;;0.95;;